Accueil
METAR-TAF:

Aéroports :

Bergerac, France

Aéroport de Bergerac-Dordogne-Périgord

latitude: 44-49N, longitude: 000-31E, altitude: 51 m

Observation

Le bulletin a été fait il y a 44 minutes, à 20:00 UTC
Vent calme
Température 18°C
Humidité 73%
Pression 1019 hPa
Visibilité 10 km ou plus
pas de nuages en-dessous de 1500 mètres et pas de cumulonimbus.

METAR: LFBE 302000Z AUTO 00000KT CAVOK 18/13 Q1019 NOSIG

Heure: 22:44 (20:44 UTC)

Prévision

Le bulletin a été fait il y a 9 heures et 44 minutes, à 11:00 UTC
Prévision valable du 30 à 12 UTC au 31 à 12 UTC
Vent 5 kt de nord/nord-est
Visibilité 10 km ou plus
pas de nuages en-dessous de 1500 mètres et pas de cumulonimbus.

TAF: LFBE 301100Z 3012/3112 02005KT CAVOK

METAR-TAF

Observations et prévisions météorologiques de plus de 4000 aéroports (messages METAR et TAF).

Les stations disponibles sont représentées par des disques jaunes et rouges sur la carte.

Passer la souris dessus pour voir le nom de la station.

Cliquer dessus pour voir les observations et prévisions météorologiques.

Pour changer de carte: cliquez sur les boutons verts avec une croix noire pour zoomer, sur le bouton vert avec un tiret pour effectuer un zoom arrière, ou sur les flèches vertes pour les cartes adjacentes.


METAR-TAF: